Latest Weather Observations for Naracoorte

IDS60801

Issued at 6:02 am CST Sunday 19 April 2015 (issued every 30 minutes, with the page automatically refreshed every 10 minutes)

About weather observations | Map of weather stations | Latest weather observations for SA | Other Formats
Station Details ID: 026099 Name: NARACOORTE AERODROME Lat: -36.98 Lon: 140.73 Height: 49.72 m
Data from the previous 72 hours. | See also: Recent months at Naracoorte
Date/Time
CST
Temp
°C
App
Temp
°C
Dew
Point
Rel
Hum
%
Delta-T
°C
Wind Press
QNH
hPa
Press
MSL
hPa
Rain
since 9 am
mm
Dir
 
Spd
km/h
Gust
km/h
Spd
kts
Gust
kts
19/06:00am 4.4 3.1 4.0 97 0.2 CALM 0 0 0 0 1027.6 1027.6 2.6
19/05:30am 3.6 2.1 3.0 96 0.2 CALM 0 0 0 0 1027.3 1027.3 2.6
19/05:00am 4.5 3.1 3.8 95 0.3 CALM 0 0 0 0 1026.5 1026.5 2.6
19/04:30am 5.3 4.0 4.3 93 0.4 CALM 0 0 0 0 1025.9 1025.9 2.6
19/04:00am 5.2 2.6 4.3 94 0.4 S 7 9 4 5 1025.5 1025.5 2.4
19/03:30am 5.6 1.9 4.2 91 0.6 SSW 13 17 7 9 1025.0 1025.0 2.4
19/03:00am 6.8 2.5 5.3 90 0.7 SSW 17 20 9 11 1024.6 1024.6 2.4
19/02:30am 4.1 1.5 3.2 94 0.4 WSW 6 9 3 5 1024.6 1024.6 2.4
19/02:00am 5.7 4.5 4.5 92 0.5 CALM 0 0 0 0 1024.3 1024.3 2.4
19/01:30am 5.9 3.0 4.4 90 0.6 SSW 9 11 5 6 1024.1 1024.1 2.4
19/01:00am 6.6 3.0 4.9 89 0.7 SW 13 15 7 8 1023.9 1023.9 2.4
19/12:30am 4.7 1.2 3.7 93 0.4 WSW 11 13 6 7 1023.5 1023.5 2.4
19/12:00am 5.0 0.8 3.8 92 0.5 WSW 15 17 8 9 1023.0 1022.9 2.4
 
Date/Time
CST
Temp
°C
App
Temp
°C
Dew
Point
Rel
Hum
%
Delta-T
°C
Wind Press
QNH
hPa
Press
MSL
hPa
Rain
since 9 am
mm
Dir
 
Spd
km/h
Gust
km/h
Spd
kts
Gust
kts
18/11:30pm 5.7 1.6 4.2 90 0.6 WSW 15 17 8 9 1022.5 1022.4 2.4
18/11:00pm 7.6 3.3 5.2 85 1.1 SW 17 20 9 11 1022.2 1022.1 2.4
18/10:30pm 7.9 3.8 6.4 90 0.7 SW 17 20 9 11 1022.1 1022.0 2.4
18/10:00pm 6.3 2.8 5.3 93 0.4 W 13 17 7 9 1021.7 1021.6 2.4
18/09:30pm 7.0 3.2 5.6 91 0.6 WSW 15 17 8 9 1021.4 1021.3 2.4
18/09:00pm 7.5 3.4 6.1 91 0.6 WSW 17 19 9 10 1020.9 1020.8 2.4
18/08:30pm 7.8 4.6 6.7 93 0.5 W 13 17 7 9 1020.2 1020.1 2.4
18/08:00pm 8.1 4.5 6.7 91 0.6 WSW 15 17 8 9 1019.7 1019.6 2.4
18/07:30pm 9.1 5.4 7.9 92 0.6 SW 17 22 9 12 1019.2 1019.1 2.4
18/07:00pm 9.2 6.0 8.3 94 0.4 W 15 19 8 10 1018.6 1018.5 2.4
18/06:30pm 10.4 7.8 9.2 92 0.6 WSW 13 15 7 8 1018.1 1018.0 2.4
18/06:00pm 11.7 9.4 10.4 92 0.7 WSW 13 17 7 9 1017.4 1017.3 2.4
18/05:30pm 11.9 10.0 10.5 91 0.7 WSW 11 15 6 8 1016.6 1016.6 2.4
18/05:00pm 11.9 9.6 10.5 91 0.7 SW 13 17 7 9 1016.0 1016.0 2.2
18/04:30pm 11.7 8.2 10.3 91 0.7 SW 19 26 10 14 1015.9 1015.9 1.8
18/04:00pm 12.2 6.6 10.3 88 1.0 SW 30 37 16 20 1015.4 1015.4 1.6
18/03:30pm 13.0 7.8 11.7 92 0.7 SSW 30 39 16 21 1014.8 1014.8 0.6
18/03:00pm 13.3 8.6 11.9 91 0.8 SSW 28 35 15 19 1014.1 1014.1 0.6
18/02:30pm 13.9 8.6 13.0 94 0.5 SW 33 41 18 22 1013.7 1013.7 0.4
18/02:07pm 13.8 6.2 12.4 91 0.8 SW 44 63 24 34 1013.2 1013.2 0.2
18/02:01pm 14.4 5.9 12.1 86 1.2 W 48 65 26 35 1012.7 1012.7 0.2
18/02:00pm 14.9 7.0 12.8 87 1.2 W 46 65 25 35 1012.7 1012.7 0.2
18/01:54pm 17.0 10.5 12.9 77 2.3 WNW 39 59 21 32 1012.6 1012.6 0.0
18/01:30pm 18.4 11.5 11.7 65 3.7 WNW 39 48 21 26 1012.5 1012.5 0.0
18/01:00pm 19.3 11.0 11.3 60 4.4 WNW 46 57 25 31 1012.6 1012.6 0.0
18/12:44pm 20.1 13.6 11.6 58 4.7 WNW 37 56 20 30 1012.8 1012.8 0.0
18/12:30pm 19.6 13.9 11.9 61 4.3 WNW 33 48 18 26 1013.0 1013.0 0.0
18/12:00pm 18.4 12.7 11.9 66 3.6 NW 33 43 18 23 1013.7 1013.7 0.0
18/11:30am 18.1 12.4 11.7 66 3.5 WNW 33 44 18 24 1014.1 1014.1 0.0
18/11:00am 17.7 11.3 11.9 69 3.2 WNW 37 50 20 27 1014.4 1014.4 0.0
18/10:30am 17.3 11.5 11.6 69 3.1 NW 33 43 18 23 1014.4 1014.4 0.0
18/10:00am 16.6 11.2 12.2 75 2.4 NW 32 41 17 22 1014.7 1014.7 0.0
18/09:30am 15.6 11.4 12.4 81 1.8 NNW 26 35 14 19 1014.8 1014.8 0.0
18/09:00am 13.8 10.2 11.7 87 1.1 NNW 22 30 12 16 1015.1 1015.1 0.2
18/08:30am 12.3 9.3 12.0 98 0.2 NNW 19 24 10 13 1015.1 1015.1 0.2
18/08:00am 11.1 8.5 10.8 98 0.2 NNW 15 20 8 11 1015.1 1015.1 0.2
18/07:30am 10.4 7.6 10.1 98 0.2 NNW 15 22 8 12 1015.1 1015.1 0.2
18/07:00am 9.4 6.4 9.1 98 0.1 NNW 15 20 8 11 1014.8 1014.8 0.2
18/06:30am 9.8 6.9 9.5 98 0.1 NNW 15 19 8 10 1014.5 1014.5 0.2
18/06:00am 10.6 7.9 10.3 98 0.2 NNW 15 20 8 11 1014.3 1014.3 0.2
18/05:30am 10.1 7.6 9.8 98 0.2 NNW 13 19 7 10 1014.3 1014.3 0.2
18/05:00am 10.7 7.6 10.4 98 0.2 NNW 17 22 9 12 1014.0 1014.0 0.2
18/04:30am 10.6 8.2 10.1 97 0.3 NNW 13 17 7 9 1013.8 1013.8 0.2
18/04:00am 11.1 8.8 10.6 97 0.3 NNW 13 17 7 9 1013.9 1013.9 0.2
18/03:30am 11.2 9.7 10.6 96 0.3 NNW 9 15 5 8 1013.8 1013.8 0.2
18/03:00am 11.6 9.8 11.0 96 0.3 NNW 11 13 6 7 1013.9 1013.9 0.2
18/02:30am 11.8 10.0 11.0 95 0.4 NW 11 15 6 8 1014.2 1014.2 0.2
18/02:00am 11.8 10.4 11.0 95 0.4 NNW 9 13 5 7 1014.3 1014.3 0.2
18/01:30am 11.9 10.5 11.0 94 0.5 NNW 9 11 5 6 1014.7 1014.7 0.2
18/01:00am 12.0 11.0 10.9 93 0.6 NNW 7 9 4 5 1015.0 1015.0 0.2
18/12:30am 12.0 10.2 10.9 93 0.6 WNW 11 13 6 7 1015.1 1015.1 0.2
18/12:00am 11.9 10.6 11.1 95 0.4 NW 9 11 5 6 1015.4 1015.4 0.2
 
Date/Time
CST
Temp
°C
App
Temp
°C
Dew
Point
Rel
Hum
%
Delta-T
°C
Wind Press
QNH
hPa
Press
MSL
hPa
Rain
since 9 am
mm
Dir
 
Spd
km/h
Gust
km/h
Spd
kts
Gust
kts
17/11:30pm 11.9 12.2 11.0 94 0.5 CALM 0 0 0 0 1015.4 1015.4 0.2
17/11:00pm 11.9 12.3 11.1 95 0.4 CALM 0 0 0 0 1015.6 1015.6 0.2
17/10:30pm 12.0 12.4 11.2 95 0.4 CALM 0 0 0 0 1016.0 1016.0 0.2
17/10:00pm 11.8 11.8 11.0 95 0.4 NE 2 6 1 3 1015.9 1015.9 0.2
17/09:30pm 12.0 10.7 11.1 94 0.5 SW 9 11 5 6 1016.5 1016.5 0.2
17/09:00pm 12.2 10.5 11.1 93 0.6 W 11 13 6 7 1016.5 1016.5 0.2
17/08:30pm 12.4 11.0 11.0 91 0.7 WSW 9 11 5 6 1016.5 1016.5 0.0
17/08:00pm 12.5 10.3 10.9 90 0.8 WSW 13 17 7 9 1016.3 1016.3 0.0
17/07:30pm 12.9 13.3 11.3 90 0.8 CALM 0 0 0 0 1016.2 1016.2 0.0
17/07:00pm 12.9 13.3 11.3 90 0.8 CALM 0 0 0 0 1016.4 1016.4 0.0
17/06:30pm 13.1 13.5 11.3 89 1.0 CALM 0 0 0 0 1016.5 1016.5 0.0
17/06:00pm 13.3 13.7 11.2 87 1.1 CALM 0 6 0 3 1016.3 1016.3 0.0
17/05:30pm 13.5 12.1 10.9 84 1.4 NNE 9 13 5 7 1016.2 1016.2 0.0
17/05:00pm 14.0 11.8 10.8 81 1.7 N 13 15 7 8 1016.0 1016.0 0.0
17/04:30pm 15.0 13.3 9.8 71 2.7 NNE 9 15 5 8 1016.1 1016.1 0.0
17/04:00pm 15.8 14.8 8.8 63 3.6 NE 4 9 2 5 1016.2 1016.2 0.0
17/03:30pm 15.3 13.8 8.5 64 3.4 N 6 13 3 7 1016.5 1016.5 0.0
17/03:00pm 15.7 13.5 8.0 60 3.9 N 9 11 5 6 1016.6 1016.6 0.0
17/02:30pm 16.4 13.3 7.1 54 4.6 NE 13 19 7 10 1016.9 1016.8 0.0
17/02:00pm 16.6 13.2 7.5 55 4.6 NE 15 22 8 12 1017.0 1016.9 0.0
17/01:30pm 16.3 12.7 6.7 53 4.7 NE 15 19 8 10 1017.7 1017.6 0.0
17/01:00pm 15.6 12.8 6.9 56 4.3 NE 11 15 6 8 1018.5 1018.4 0.0
17/12:30pm 15.1 11.9 6.9 58 4.0 ENE 13 20 7 11 1019.2 1019.1 0.0
17/12:00pm 14.5 11.8 7.5 63 3.4 NE 11 17 6 9 1020.1 1020.0 0.0
17/11:30am 13.8 11.6 7.8 67 3.0 NE 9 13 5 7 1020.5 1020.4 0.0
17/11:00am 13.2 11.4 8.1 71 2.5 ENE 7 11 4 6 1021.1 1021.0 0.0
17/10:30am 12.7 10.6 8.2 74 2.2 E 9 13 5 7 1021.5 1021.4 0.0
17/10:00am 12.6 10.0 7.9 73 2.3 E 11 13 6 7 1021.8 1021.7 0.0
17/09:30am 12.2 10.4 7.3 72 2.4 ESE 6 9 3 5 1022.1 1022.0 0.0
17/09:00am 11.7 9.0 7.4 75 2.1 SE 11 15 6 8 1022.1 1022.0 0.0
17/08:30am 11.2 8.9 7.5 78 1.8 SSE 9 15 5 8 1022.5 1022.4 0.0
17/08:00am 10.3 8.0 7.5 83 1.3 SSE 9 11 5 6 1022.7 1022.6 0.0
17/07:30am 8.7 6.3 7.0 89 0.8 SSE 9 11 5 6 1022.8 1022.7 0.0
17/07:00am 8.3 5.9 6.8 90 0.7 SSE 9 11 5 6 1022.9 1022.8 0.0
17/06:30am 8.3 5.9 6.8 90 0.7 S 9 13 5 7 1022.9 1022.8 0.0
17/06:00am 8.5 6.1 6.8 89 0.8 SSE 9 13 5 7 1023.1 1023.0 0.0
17/05:30am 8.7 6.2 6.7 87 0.9 SSE 9 13 5 7 1023.1 1023.0 0.0
17/05:00am 8.8 6.0 6.8 87 0.9 SSE 11 17 6 9 1022.9 1022.8 0.0
17/04:30am 8.8 6.0 6.8 87 0.9 SE 11 15 6 8 1022.9 1022.8 0.0
17/04:00am 8.9 5.3 6.7 86 1.0 S 15 17 8 9 1022.7 1022.6 0.0
17/03:30am 9.0 5.0 6.8 86 1.0 SSE 17 20 9 11 1022.6 1022.5 0.0
17/03:00am 9.1 5.9 6.9 86 1.0 SSE 13 15 7 8 1022.8 1022.7 0.0
17/02:30am 9.2 7.7 6.6 84 1.2 ESE 4 9 2 5 1023.1 1023.0 0.0
17/02:00am 9.7 7.3 7.0 83 1.3 SSE 9 11 5 6 1023.3 1023.2 0.0
17/01:30am 10.6 8.6 7.1 79 1.7 ESE 7 9 4 5 1023.2 1023.1 0.0
17/01:00am 11.1 8.7 7.0 76 2.0 SE 9 11 5 6 1023.7 1023.7 0.0
17/12:30am 11.0 9.0 7.3 78 1.8 E 7 11 4 6 1023.9 1023.9 0.0
17/12:00am 10.7 8.4 7.4 80 1.6 SSE 9 11 5 6 1024.6 1024.6 0.0
 
Date/Time
CST
Temp
°C
App
Temp
°C
Dew
Point
Rel
Hum
%
Delta-T
°C
Wind Press
QNH
hPa
Press
MSL
hPa
Rain
since 9 am
mm
Dir
 
Spd
km/h
Gust
km/h
Spd
kts
Gust
kts
16/11:30pm 11.1 8.8 7.4 78 1.8 SSE 9 11 5 6 1025.1 1025.1 0.0
16/11:00pm 11.1 9.2 7.4 78 1.8 SSE 7 9 4 5 1025.4 1025.4 0.0
16/10:30pm 11.1 8.8 7.6 79 1.7 SSE 9 9 5 5 1025.8 1025.8 0.0
16/10:00pm 11.7 9.4 7.4 75 2.1 SSE 9 11 5 6 1026.2 1026.2 0.0
16/09:30pm 12.3 9.9 7.2 71 2.4 SE 9 11 5 6 1026.3 1026.3 0.0
16/09:00pm 12.0 9.4 7.7 75 2.1 SSE 11 13 6 7 1026.1 1026.1 0.0
16/08:30pm 11.9 8.9 7.6 75 2.1 SSE 13 15 7 8 1025.8 1025.8 0.0
16/08:00pm 12.5 9.1 7.8 73 2.3 SSE 15 19 8 10 1025.5 1025.5 0.0
16/07:30pm 12.9 9.2 8.0 72 2.4 SSE 17 20 9 11 1025.3 1025.3 0.0
16/07:00pm 13.4 9.3 7.8 69 2.8 SSE 19 20 10 11 1025.3 1025.3 0.0
16/06:30pm 13.9 10.2 7.9 67 3.0 S 17 22 9 12 1025.3 1025.3 0.0
16/06:00pm 14.3 10.9 7.8 65 3.2 SSE 15 17 8 9 1024.9 1024.9 0.0
16/05:30pm 15.1 11.8 7.9 62 3.6 SSE 15 17 8 9 1024.6 1024.6 0.0
16/05:00pm 15.8 12.8 7.6 58 4.1 SSE 13 17 7 9 1024.6 1024.6 0.0
16/04:30pm 16.4 13.6 7.1 54 4.6 S 11 13 6 7 1025.0 1025.0 0.0
16/04:00pm 16.8 13.2 6.6 51 5.0 S 15 17 8 9 1025.6 1025.6 0.0
16/03:30pm 17.1 13.5 6.6 50 5.2 SSW 15 20 8 11 1025.5 1025.5 0.0
16/03:00pm 17.2 13.9 6.4 49 5.3 SSW 13 17 7 9 1025.2 1025.2 0.0
16/02:30pm 17.1 13.4 6.3 49 5.3 S 15 19 8 10 1024.9 1024.9 0.0
16/02:00pm 16.9 13.2 6.4 50 5.2 S 15 24 8 13 1024.7 1024.7 0.0
16/01:30pm 17.1 13.1 6.6 50 5.2 SSE 17 22 9 12 1024.7 1024.7 0.0
16/01:00pm 16.8 13.2 6.6 51 5.0 SSE 15 24 8 13 1025.2 1025.2 0.0
16/12:30pm 16.6 12.9 6.4 51 5.0 SSE 15 20 8 11 1025.8 1025.8 0.0
16/12:00pm 17.0 13.5 7.4 53 4.8 SSE 15 22 8 12 1026.0 1026.0 0.0
16/11:30am 16.7 13.9 7.1 53 4.8 SSE 11 17 6 9 1026.4 1026.4 0.0
16/11:00am 15.7 13.2 6.7 55 4.4 SSE 9 17 5 9 1027.0 1027.0 0.0
16/10:30am 15.8 13.2 7.6 58 4.1 SSE 11 20 6 11 1027.1 1027.1 0.0
16/10:00am 15.4 11.6 7.4 59 4.0 S 17 22 9 12 1027.2 1027.2 0.0
16/09:30am 15.5 11.9 8.3 62 3.6 SSE 17 22 9 12 1027.0 1027.0 0.0
16/09:00am 14.8 10.9 8.5 66 3.2 S 19 22 10 12 1027.6 1027.6 0.0
16/08:30am 13.9 11.0 10.9 82 1.6 S 17 24 9 13 1027.3 1027.3 0.0
16/08:00am 12.8 12.6 11.7 93 0.6 SSW 4 9 2 5 1026.8 1026.8 0.0
16/07:30am 12.4 10.9 11.8 96 0.3 SSE 11 15 6 8 1025.9 1025.9 0.0
16/07:00am 11.9 11.0 11.4 97 0.3 SE 7 11 4 6 1025.5 1025.5 0.0
16/06:30am 11.4 10.0 10.9 97 0.3 SE 9 11 5 6 1025.2 1025.2 0.0

Other Formats:

Comma delimited format used in spreadsheet applications
http://www.bom.gov.au/fwo/IDS60801/IDS60801.94820.axf

JavaScript Object Notation format (JSON) in row-major order
http://www.bom.gov.au/fwo/IDS60801/IDS60801.94820.json